createdAt,value
2018-06-03T00:00:34.917Z,84.50
2018-06-03T00:03:04.094Z,84.10
2018-06-03T00:05:33.228Z,87.37
2018-06-03T00:08:02.353Z,88.97
2018-06-03T00:10:31.559Z,91.60
2018-06-03T00:13:00.676Z,87.83
2018-06-03T00:15:29.808Z,85.43
2018-06-03T00:17:58.962Z,86.90
2018-06-03T00:20:34.004Z,85.23
2018-06-03T00:23:03.113Z,86.43
2018-06-03T00:25:32.267Z,86.17
2018-06-03T00:28:01.428Z,81.50
2018-06-03T00:30:30.573Z,83.37
2018-06-03T00:32:59.687Z,78.90
2018-06-03T00:35:28.899Z,80.50
2018-06-03T00:37:58.029Z,80.30
2018-06-03T00:40:27.140Z,84.53
2018-06-03T00:42:56.363Z,79.60
2018-06-03T00:45:25.497Z,78.27
2018-06-03T00:47:54.640Z,78.57
2018-06-03T00:50:23.785Z,79.00
2018-06-03T00:52:52.917Z,78.60
2018-06-03T00:55:22.024Z,83.00
2018-06-03T00:57:51.172Z,78.83
2018-06-03T01:00:20.329Z,78.40
2018-06-03T01:02:49.452Z,78.17
2018-06-03T01:05:18.629Z,83.57
2018-06-03T01:07:48.264Z,80.97
2018-06-03T01:10:17.396Z,79.90
2018-06-03T01:12:46.560Z,78.60
2018-06-03T01:15:15.714Z,78.87
2018-06-03T01:17:44.870Z,79.57
2018-06-03T01:20:14.024Z,78.27
2018-06-03T01:22:43.168Z,77.87
2018-06-03T01:25:12.309Z,78.70
2018-06-03T01:27:41.476Z,80.47
2018-06-03T01:30:10.608Z,79.70
2018-06-03T01:32:39.756Z,79.53
2018-06-03T01:35:08.940Z,78.60
2018-06-03T01:37:38.075Z,81.00
2018-06-03T01:40:07.188Z,83.37
2018-06-03T01:42:36.378Z,86.87
2018-06-03T01:45:05.516Z,84.27
2018-06-03T01:47:34.628Z,82.80
2018-06-03T01:50:03.798Z,84.07
2018-06-03T01:52:32.945Z,120.97
2018-06-03T01:55:02.087Z,87.47
2018-06-03T01:57:31.264Z,84.50
2018-06-03T02:00:00.425Z,87.43
2018-06-03T02:02:29.598Z,84.27
2018-06-03T02:04:58.712Z,84.23
2018-06-03T02:07:27.847Z,84.90
2018-06-03T02:09:57.433Z,82.37
2018-06-03T02:12:26.569Z,81.67
2018-06-03T02:14:55.707Z,83.57
2018-06-03T02:17:24.825Z,82.80
2018-06-03T02:19:53.964Z,86.83
2018-06-03T02:22:23.123Z,83.07
2018-06-03T02:24:52.273Z,87.07
2018-06-03T02:27:21.417Z,83.20
2018-06-03T02:29:50.567Z,82.87
2018-06-03T02:32:19.734Z,86.83
2018-06-03T02:34:48.872Z,82.23
2018-06-03T02:37:18.009Z,83.90
2018-06-03T02:39:47.187Z,86.53
2018-06-03T02:42:16.331Z,83.40
2018-06-03T02:44:45.445Z,82.47
2018-06-03T02:47:14.982Z,82.50
2018-06-03T02:49:44.119Z,86.57
2018-06-03T02:52:13.291Z,81.87
2018-06-03T02:54:42.458Z,81.60
2018-06-03T02:57:11.597Z,84.27
2018-06-03T02:59:40.718Z,87.07
2018-06-03T03:02:09.852Z,84.00
2018-06-03T03:04:38.988Z,83.70
2018-06-03T03:07:08.105Z,83.77
2018-06-03T03:09:37.248Z,83.60
2018-06-03T03:12:06.566Z,84.80
2018-06-03T03:14:35.689Z,83.10
2018-06-03T03:17:04.841Z,85.37
2018-06-03T03:19:33.980Z,84.27
2018-06-03T03:22:03.126Z,84.47
2018-06-03T03:24:32.296Z,85.83
2018-06-03T03:27:01.426Z,90.53
2018-06-03T03:29:30.593Z,86.70
2018-06-03T03:31:59.699Z,84.00
2018-06-03T03:34:28.825Z,84.90
2018-06-03T03:36:58.007Z,82.17
2018-06-03T03:39:27.195Z,87.87
2018-06-03T03:41:56.318Z,81.37
2018-06-03T03:44:25.538Z,80.90
2018-06-03T03:46:54.673Z,85.17
2018-06-03T03:49:23.828Z,84.30
2018-06-03T03:51:52.950Z,84.40
2018-06-03T03:54:22.140Z,82.47
2018-06-03T03:56:51.330Z,83.63
2018-06-03T03:59:20.476Z,83.53
2018-06-03T04:01:49.684Z,82.73
2018-06-03T04:04:18.830Z,81.50
2018-06-03T04:06:47.952Z,83.77
2018-06-03T04:09:17.141Z,83.67
2018-06-03T04:11:46.263Z,84.00
2018-06-03T04:14:15.382Z,81.07
2018-06-03T04:16:44.539Z,82.17
2018-06-03T04:19:13.656Z,80.07
2018-06-03T04:21:42.914Z,84.10
2018-06-03T04:24:12.092Z,84.10
2018-06-03T04:26:41.216Z,80.80
2018-06-03T04:29:10.343Z,83.10
2018-06-03T04:31:39.564Z,82.90
2018-06-03T04:34:08.680Z,82.97
2018-06-03T04:36:37.865Z,84.87
2018-06-03T04:39:07.025Z,81.17
2018-06-03T04:41:36.176Z,81.90
2018-06-03T04:44:05.389Z,81.27
2018-06-03T04:46:34.504Z,82.83
2018-06-03T04:49:03.628Z,79.53
2018-06-03T04:51:32.785Z,83.70
2018-06-03T04:54:01.924Z,78.10
2018-06-03T04:56:31.052Z,80.00
2018-06-03T04:59:00.176Z,76.90
2018-06-03T05:01:29.324Z,78.37
2018-06-03T05:03:58.467Z,77.30
2018-06-03T05:06:27.587Z,76.80
2018-06-03T05:08:57.236Z,79.50
2018-06-03T05:11:26.376Z,78.43
2018-06-03T05:13:55.519Z,77.27
2018-06-03T05:16:24.696Z,77.70
2018-06-03T05:18:53.836Z,80.00
2018-06-03T05:21:22.966Z,80.93
2018-06-03T05:23:52.127Z,81.37
2018-06-03T05:26:21.262Z,83.07
2018-06-03T05:28:50.404Z,84.60
2018-06-03T05:31:19.544Z,82.93
2018-06-03T05:33:48.727Z,82.80
2018-06-03T05:36:17.881Z,83.37
2018-06-03T05:38:47.046Z,84.70
2018-06-03T05:41:16.173Z,82.20
2018-06-03T05:43:45.329Z,80.90
2018-06-03T05:46:14.638Z,79.40
2018-06-03T05:48:43.824Z,81.13
2018-06-03T05:51:12.982Z,81.87
2018-06-03T05:53:42.128Z,82.30
2018-06-03T05:56:11.272Z,81.70
2018-06-03T05:58:40.440Z,80.73
2018-06-03T06:01:09.588Z,88.87
2018-06-03T06:03:38.732Z,83.47
2018-06-03T06:06:07.897Z,81.17
2018-06-03T06:08:37.037Z,79.50
2018-06-03T06:11:06.164Z,81.33
2018-06-03T06:13:35.332Z,79.67
2018-06-03T06:16:04.465Z,80.57
2018-06-03T06:18:33.642Z,79.60
2018-06-03T06:21:02.775Z,84.30
2018-06-03T06:23:31.944Z,79.20
2018-06-03T06:26:01.128Z,82.20
2018-06-03T06:28:30.267Z,80.30
2018-06-03T06:30:59.377Z,81.70
2018-06-03T06:33:28.532Z,78.93
2018-06-03T06:35:57.677Z,82.80
2018-06-03T06:38:26.807Z,80.07
2018-06-03T06:40:55.957Z,79.37
2018-06-03T06:43:25.091Z,82.87
2018-06-03T06:45:54.221Z,81.37
2018-06-03T06:48:23.386Z,80.27
2018-06-03T06:50:52.501Z,83.97
2018-06-03T06:53:21.639Z,80.37
2018-06-03T06:55:50.812Z,79.53
2018-06-03T06:58:19.928Z,79.77
2018-06-03T07:00:49.073Z,79.00
2018-06-03T07:03:18.244Z,77.87
2018-06-03T07:05:47.377Z,79.97
2018-06-03T07:08:16.534Z,85.30
2018-06-03T07:10:45.714Z,76.53
2018-06-03T07:13:15.052Z,79.77
2018-06-03T07:15:44.111Z,80.27
2018-06-03T07:18:13.284Z,77.97
2018-06-03T07:20:42.402Z,79.60
2018-06-03T07:23:11.600Z,79.47
2018-06-03T07:25:40.704Z,80.77
2018-06-03T07:28:09.851Z,77.20
2018-06-03T07:30:38.995Z,78.37
2018-06-03T07:33:08.141Z,83.47
2018-06-03T07:35:37.288Z,78.90
2018-06-03T07:38:06.440Z,77.40
2018-06-03T07:40:35.585Z,79.10
2018-06-03T07:43:04.721Z,76.67
2018-06-03T07:45:33.890Z,78.27
2018-06-03T07:48:02.998Z,76.87
2018-06-03T07:50:32.151Z,77.03
2018-06-03T07:53:01.311Z,77.23
2018-06-03T07:55:30.467Z,75.40
2018-06-03T07:57:59.651Z,74.83
2018-06-03T08:00:28.821Z,77.17
2018-06-03T08:02:57.978Z,77.47
2018-06-03T08:05:27.116Z,76.77
2018-06-03T08:07:56.282Z,74.87
2018-06-03T08:10:25.424Z,77.63
2018-06-03T08:12:54.567Z,76.17
2018-06-03T08:15:23.759Z,74.90
2018-06-03T08:17:52.884Z,75.03
2018-06-03T08:20:22.024Z,76.03
2018-06-03T08:22:51.188Z,74.87
2018-06-03T08:25:20.317Z,75.70
2018-06-03T08:27:49.465Z,77.53
2018-06-03T08:30:18.608Z,77.57
2018-06-03T08:32:48.209Z,76.50
2018-06-03T08:35:17.381Z,74.17
2018-06-03T08:37:46.495Z,73.17
2018-06-03T08:40:15.664Z,73.87
2018-06-03T08:42:44.771Z,74.60
2018-06-03T08:45:14.318Z,74.93
2018-06-03T08:47:43.482Z,72.87
2018-06-03T08:50:12.620Z,73.00
2018-06-03T08:52:42.675Z,72.53
2018-06-03T08:55:11.844Z,76.53
2018-06-03T08:57:40.980Z,72.10
2018-06-03T09:00:10.125Z,72.00
2018-06-03T09:02:39.239Z,72.60
2018-06-03T09:05:08.374Z,74.30
2018-06-03T09:07:37.612Z,73.27
2018-06-03T09:10:06.745Z,73.20
2018-06-03T09:12:35.899Z,73.47
2018-06-03T09:15:05.068Z,73.20
2018-06-03T09:17:34.199Z,74.47
2018-06-03T09:20:03.300Z,73.00
2018-06-03T09:22:32.479Z,73.37
2018-06-03T09:25:01.641Z,71.40
2018-06-03T09:27:30.750Z,80.30
2018-06-03T09:29:59.892Z,70.97
2018-06-03T09:32:29.088Z,73.80
2018-06-03T09:34:58.205Z,74.57
2018-06-03T09:37:27.382Z,73.47
2018-06-03T09:39:56.524Z,74.40
2018-06-03T09:42:25.663Z,77.27
2018-06-03T09:44:54.791Z,76.07
2018-06-03T09:47:23.977Z,73.70
2018-06-03T09:49:53.094Z,73.37
2018-06-03T09:52:22.237Z,73.90
2018-06-03T09:54:51.367Z,74.10
2018-06-03T09:57:20.495Z,72.50
2018-06-03T09:59:49.621Z,73.80
2018-06-03T10:02:18.801Z,73.57
2018-06-03T10:04:47.960Z,71.83
2018-06-03T10:07:17.081Z,73.37
2018-06-03T10:09:46.187Z,79.97
2018-06-03T10:12:15.401Z,78.37
2018-06-03T10:14:44.525Z,74.00
2018-06-03T10:17:13.643Z,75.37
2018-06-03T10:19:42.833Z,74.50
2018-06-03T10:22:11.976Z,72.77
2018-06-03T10:24:41.120Z,77.30
2018-06-03T10:27:10.255Z,73.07
2018-06-03T10:29:39.401Z,72.53
2018-06-03T10:32:08.640Z,75.53
2018-06-03T10:34:37.781Z,72.20
2018-06-03T10:37:06.905Z,74.70
2018-06-03T10:39:36.066Z,73.57
2018-06-03T10:42:05.179Z,73.40
2018-06-03T10:44:34.312Z,74.07
2018-06-03T10:47:03.482Z,74.73
2018-06-03T10:49:33.132Z,74.37
2018-06-03T10:52:02.282Z,74.97
2018-06-03T10:54:31.446Z,77.00
2018-06-03T10:57:00.599Z,75.20
2018-06-03T10:59:29.768Z,76.30
2018-06-03T11:01:58.909Z,74.70
2018-06-03T11:04:28.057Z,73.37
2018-06-03T11:06:57.253Z,74.43
2018-06-03T11:09:26.353Z,72.07
2018-06-03T11:11:55.493Z,71.97
2018-06-03T11:14:24.646Z,72.77
2018-06-03T11:16:53.774Z,72.93
2018-06-03T11:19:22.950Z,77.33
2018-06-03T11:21:52.113Z,72.97
2018-06-03T11:24:21.267Z,76.70
2018-06-03T11:26:50.419Z,73.40
2018-06-03T11:29:19.541Z,73.90
2018-06-03T11:31:48.682Z,73.60
2018-06-03T11:34:17.828Z,72.77
2018-06-03T11:36:46.960Z,72.00
2018-06-03T11:39:16.109Z,72.70
2018-06-03T11:41:45.279Z,72.33
2018-06-03T11:44:14.415Z,73.17
2018-06-03T11:46:43.563Z,72.57
2018-06-03T11:49:12.739Z,73.20
2018-06-03T11:51:42.015Z,71.43
2018-06-03T11:54:11.153Z,71.23
2018-06-03T11:56:46.245Z,71.70
2018-06-03T11:59:15.377Z,72.07
2018-06-03T12:01:44.550Z,72.53
2018-06-03T12:04:13.698Z,71.17
2018-06-03T12:06:42.812Z,70.87
2018-06-03T12:09:11.947Z,70.57
2018-06-03T12:11:41.103Z,71.60
2018-06-03T12:14:10.252Z,72.07
2018-06-03T12:16:39.373Z,72.07
2018-06-03T12:19:08.530Z,72.03
2018-06-03T12:21:37.664Z,72.83
2018-06-03T12:24:06.780Z,71.40
2018-06-03T12:26:35.916Z,72.40
2018-06-03T12:29:05.079Z,70.70
2018-06-03T12:31:34.222Z,72.37
2018-06-03T12:34:03.353Z,72.37
2018-06-03T12:36:32.536Z,74.50
2018-06-03T12:39:01.661Z,71.30
2018-06-03T12:41:30.796Z,71.47
2018-06-03T12:43:59.985Z,70.70
2018-06-03T12:46:29.138Z,71.37
2018-06-03T12:48:58.263Z,72.10
2018-06-03T12:51:27.449Z,71.27
2018-06-03T12:53:57.859Z,73.40
2018-06-03T12:56:27.281Z,73.30
2018-06-03T12:58:56.459Z,76.80
2018-06-03T13:01:25.611Z,74.30
2018-06-03T13:03:54.721Z,72.30
2018-06-03T13:06:23.934Z,72.57
2018-06-03T13:08:53.028Z,73.77
2018-06-03T13:11:22.150Z,73.17
2018-06-03T13:13:51.333Z,72.60
2018-06-03T13:16:20.455Z,74.27
2018-06-03T13:18:49.601Z,73.13
2018-06-03T13:21:52.003Z,73.47
2018-06-03T13:24:20.188Z,73.07
2018-06-03T13:26:48.388Z,73.20
2018-06-03T13:29:16.626Z,73.30
2018-06-03T13:31:44.861Z,73.27
2018-06-03T13:34:13.073Z,72.93
2018-06-03T13:36:41.392Z,74.30
2018-06-03T13:39:09.613Z,73.13
2018-06-03T13:41:37.792Z,72.93
2018-06-03T13:44:06.016Z,71.10
2018-06-03T13:46:34.259Z,70.77
2018-06-03T13:49:02.497Z,71.80
2018-06-03T13:51:30.725Z,75.33
2018-06-03T13:53:59.028Z,70.47
2018-06-03T13:56:27.609Z,70.27
2018-06-03T13:58:55.896Z,70.60
2018-06-03T14:01:24.099Z,70.93
2018-06-03T14:03:52.301Z,71.53
2018-06-03T14:06:20.556Z,71.00
2018-06-03T14:08:49.469Z,72.80
2018-06-03T14:11:17.768Z,71.57
2018-06-03T14:13:46.006Z,72.77
2018-06-03T14:16:14.200Z,72.77
2018-06-03T14:18:42.416Z,74.40
2018-06-03T14:21:10.664Z,73.07
2018-06-03T14:23:38.884Z,80.33
2018-06-03T14:26:07.111Z,74.20
2018-06-03T14:28:35.319Z,75.70
2018-06-03T14:31:03.537Z,76.93
2018-06-03T14:33:31.749Z,75.80
2018-06-03T14:36:00.001Z,76.60
2018-06-03T14:38:28.420Z,74.43
2018-06-03T14:40:56.610Z,73.53
2018-06-03T14:43:25.020Z,73.50
2018-06-03T14:45:53.295Z,72.90
2018-06-03T14:48:21.546Z,71.97
2018-06-03T14:50:49.786Z,73.47
2018-06-03T14:53:17.971Z,72.63
2018-06-03T14:55:46.149Z,72.07
2018-06-03T14:58:14.419Z,73.70
2018-06-03T15:00:42.611Z,72.07
2018-06-03T15:03:10.867Z,71.50
2018-06-03T15:05:39.137Z,72.53
2018-06-03T15:08:07.392Z,71.50
2018-06-03T15:10:35.615Z,76.10
2018-06-03T15:13:03.876Z,78.53
2018-06-03T15:15:32.100Z,73.17
2018-06-03T15:18:00.335Z,74.37
2018-06-03T15:20:28.602Z,75.73
2018-06-03T15:22:56.848Z,75.10
2018-06-03T15:25:25.754Z,77.60
2018-06-03T15:27:53.979Z,80.00
2018-06-03T15:30:22.210Z,95.90
2018-06-03T15:32:50.455Z,83.97
2018-06-03T15:35:18.668Z,78.43
2018-06-03T15:37:46.909Z,78.47
2018-06-03T15:40:15.696Z,77.80
2018-06-03T15:42:43.906Z,76.90
2018-06-03T15:45:12.112Z,75.80
2018-06-03T15:47:40.363Z,100.53
2018-06-03T15:50:08.587Z,78.07
2018-06-03T15:52:36.789Z,85.23
2018-06-03T15:55:05.036Z,74.80
2018-06-03T15:57:33.277Z,76.23
2018-06-03T16:00:01.511Z,78.87
2018-06-03T16:02:29.757Z,76.87
2018-06-03T16:04:58.025Z,78.43
2018-06-03T16:07:26.234Z,75.30
2018-06-03T16:09:54.496Z,76.47
2018-06-03T16:12:22.715Z,76.07
2018-06-03T16:14:50.946Z,74.10
2018-06-03T16:17:20.200Z,75.70
2018-06-03T16:19:48.395Z,74.30
2018-06-03T16:22:16.628Z,76.30
2018-06-03T16:24:44.840Z,76.20
2018-06-03T16:27:13.095Z,76.40
2018-06-03T16:29:42.325Z,74.43
2018-06-03T16:32:10.529Z,75.67
2018-06-03T16:34:38.714Z,76.00
2018-06-03T16:37:06.904Z,75.27
2018-06-03T16:39:35.137Z,78.77
2018-06-03T16:42:03.658Z,76.67
2018-06-03T16:44:31.947Z,74.50
2018-06-03T16:47:00.168Z,76.13
2018-06-03T16:49:28.436Z,78.80
2018-06-03T16:51:56.672Z,73.90
2018-06-03T16:54:24.999Z,76.17
2018-06-03T16:56:53.221Z,74.67
2018-06-03T16:59:21.522Z,75.90
2018-06-03T17:01:49.820Z,74.70
2018-06-03T17:04:18.040Z,74.77
2018-06-03T17:06:46.264Z,74.10
2018-06-03T17:09:14.477Z,74.90
2018-06-03T17:11:42.692Z,76.50
2018-06-03T17:14:11.034Z,74.80
2018-06-03T17:16:39.253Z,73.67
2018-06-03T17:19:07.551Z,75.80
2018-06-03T17:21:35.717Z,74.10
2018-06-03T17:24:03.917Z,75.70
2018-06-03T17:26:32.137Z,76.30
2018-06-03T17:29:00.329Z,75.40
2018-06-03T17:31:28.547Z,75.87
2018-06-03T17:33:56.777Z,75.20
2018-06-03T17:36:24.968Z,76.23
2018-06-03T17:38:53.168Z,74.20
2018-06-03T17:41:21.453Z,74.90
2018-06-03T17:43:49.720Z,75.57
2018-06-03T17:46:17.934Z,77.50
2018-06-03T17:48:46.169Z,76.13
2018-06-03T17:51:14.349Z,74.07
2018-06-03T17:53:42.572Z,74.87
2018-06-03T17:56:10.802Z,77.10
2018-06-03T17:58:39.039Z,73.53
2018-06-03T18:01:07.296Z,74.50
2018-06-03T18:03:35.580Z,78.13
2018-06-03T18:06:03.767Z,75.07
2018-06-03T18:08:31.972Z,75.77
2018-06-03T18:11:00.229Z,76.57
2018-06-03T18:13:28.436Z,75.80
2018-06-03T18:15:56.665Z,75.90
2018-06-03T18:18:25.580Z,78.07
2018-06-03T18:20:53.805Z,77.80
2018-06-03T18:23:22.004Z,78.20
2018-06-03T18:25:50.241Z,77.60
2018-06-03T18:28:18.469Z,78.00
2018-06-03T18:30:46.681Z,85.83
2018-06-03T18:33:14.952Z,82.50
2018-06-03T18:35:43.149Z,83.90
2018-06-03T18:38:11.373Z,86.60
2018-06-03T18:40:39.618Z,80.67
2018-06-03T18:43:07.785Z,81.40
2018-06-03T18:45:36.033Z,83.77
2018-06-03T18:48:04.286Z,81.60
2018-06-03T18:50:32.472Z,83.90
2018-06-03T18:53:00.682Z,83.17
2018-06-03T18:55:28.904Z,84.57
2018-06-03T18:57:57.164Z,81.63
2018-06-03T19:00:25.400Z,85.07
2018-06-03T19:02:53.720Z,84.80
2018-06-03T19:05:21.985Z,84.90
2018-06-03T19:07:50.173Z,81.87
2018-06-03T19:10:18.480Z,83.97
2018-06-03T19:12:46.692Z,80.57
2018-06-03T19:15:14.966Z,82.70
2018-06-03T19:17:43.197Z,82.00
2018-06-03T19:20:11.986Z,81.83
2018-06-03T19:22:40.214Z,80.27
2018-06-03T19:25:08.511Z,81.33
2018-06-03T19:27:36.737Z,83.00
2018-06-03T19:30:05.044Z,81.10
2018-06-03T19:32:33.261Z,81.47
2018-06-03T19:35:01.482Z,81.80
2018-06-03T19:37:29.705Z,81.57
2018-06-03T19:39:57.972Z,80.47
2018-06-03T19:42:26.192Z,83.33
2018-06-03T19:44:54.444Z,81.30
2018-06-03T19:47:22.648Z,79.60
2018-06-03T19:49:50.917Z,78.50
2018-06-03T19:52:19.193Z,82.10
2018-06-03T19:54:47.416Z,81.33
2018-06-03T19:57:15.629Z,78.30
2018-06-03T19:59:43.920Z,79.00
2018-06-03T20:02:12.124Z,79.83
2018-06-03T20:04:40.315Z,81.10
2018-06-03T20:07:08.553Z,80.53
2018-06-03T20:09:36.803Z,83.40
2018-06-03T20:12:05.010Z,83.10
2018-06-03T20:14:33.282Z,81.33
2018-06-03T20:17:01.504Z,85.27
2018-06-03T20:19:29.765Z,80.50
2018-06-03T20:21:58.550Z,81.57
2018-06-03T20:24:26.842Z,82.20
2018-06-03T20:26:55.066Z,81.57
2018-06-03T20:29:23.337Z,79.80
2018-06-03T20:31:51.533Z,82.13
2018-06-03T20:34:19.748Z,81.17
2018-06-03T20:36:47.975Z,82.70
2018-06-03T20:39:16.256Z,78.97
2018-06-03T20:41:44.473Z,80.07
2018-06-03T20:44:12.714Z,80.03
2018-06-03T20:46:40.962Z,83.50
2018-06-03T20:49:09.204Z,80.90
2018-06-03T20:51:37.472Z,83.23
2018-06-03T20:54:05.718Z,82.20
2018-06-03T20:56:33.974Z,80.43
2018-06-03T20:59:02.177Z,89.70
2018-06-03T21:01:30.364Z,82.73
2018-06-03T21:03:58.652Z,84.63
2018-06-03T21:06:26.879Z,83.47
2018-06-03T21:08:55.100Z,83.93
2018-06-03T21:11:23.331Z,80.27
2018-06-03T21:13:51.555Z,81.80
2018-06-03T21:16:19.772Z,83.57
2018-06-03T21:18:47.991Z,82.50
2018-06-03T21:21:16.267Z,85.07
2018-06-03T21:23:45.266Z,84.70
2018-06-03T21:26:13.501Z,81.47
2018-06-03T21:28:41.726Z,82.53
2018-06-03T21:31:10.091Z,81.70
2018-06-03T21:33:38.350Z,86.03
2018-06-03T21:36:06.684Z,83.07
2018-06-03T21:38:34.945Z,85.70
2018-06-03T21:41:03.584Z,82.07
2018-06-03T21:43:31.793Z,83.00
2018-06-03T21:46:00.009Z,82.63
2018-06-03T21:48:28.278Z,88.00
2018-06-03T21:50:56.539Z,84.30
2018-06-03T21:53:24.749Z,83.57
2018-06-03T21:55:53.011Z,81.27
2018-06-03T21:58:21.739Z,83.57
2018-06-03T22:00:49.895Z,82.47
2018-06-03T22:03:18.144Z,82.40
2018-06-03T22:05:46.370Z,81.47
2018-06-03T22:08:14.600Z,82.87
2018-06-03T22:10:42.909Z,82.77
2018-06-03T22:13:11.091Z,83.67
2018-06-03T22:15:39.330Z,81.40
2018-06-03T22:18:07.600Z,83.03
2018-06-03T22:20:35.890Z,83.50
2018-06-03T22:23:04.132Z,81.00
2018-06-03T22:25:32.928Z,81.73
2018-06-03T22:28:01.157Z,84.77
2018-06-03T22:30:29.419Z,81.47
2018-06-03T22:32:57.616Z,82.23
2018-06-03T22:35:25.828Z,82.77
2018-06-03T22:37:54.056Z,80.97
2018-06-03T22:40:22.303Z,82.23
2018-06-03T22:42:50.552Z,79.80
2018-06-03T22:45:18.804Z,80.43
2018-06-03T22:47:46.988Z,80.50
2018-06-03T22:50:15.276Z,79.87
2018-06-03T22:52:43.467Z,79.37
2018-06-03T22:55:11.698Z,81.60
2018-06-03T22:57:45.565Z,79.90
2018-06-03T23:00:14.702Z,80.77
2018-06-03T23:02:47.220Z,85.93
2018-06-03T23:05:15.452Z,79.37
2018-06-03T23:07:43.648Z,82.37
2018-06-03T23:10:11.889Z,79.97
2018-06-03T23:12:40.092Z,82.70
2018-06-03T23:15:08.339Z,81.50
2018-06-03T23:17:36.607Z,80.37
2018-06-03T23:20:04.817Z,83.37
2018-06-03T23:22:33.067Z,79.27
2018-06-03T23:25:01.274Z,87.33
2018-06-03T23:27:29.568Z,80.17
2018-06-03T23:29:57.763Z,82.87
2018-06-03T23:32:26.024Z,83.80
2018-06-03T23:34:54.257Z,82.27
2018-06-03T23:37:22.483Z,82.20
2018-06-03T23:39:50.711Z,81.10
2018-06-03T23:42:18.903Z,80.87
2018-06-03T23:44:47.160Z,82.60
2018-06-03T23:47:15.397Z,80.37
2018-06-03T23:49:43.579Z,81.17
2018-06-03T23:52:11.821Z,81.70
2018-06-03T23:54:40.013Z,81.97
2018-06-03T23:57:08.232Z,81.37
2018-06-03T23:59:36.478Z,80.87
